Time;durP1;ratioP1;P1;durP2;ratioP2;P2;SDS_P1;SDS_P2;PMS_P1;PMS_P2;Temp;Humidity;BMP_temperature;BMP_pressure;BME280_temperature;BME280_humidity;BME280_pressure;Samples;Min_cycle;Max_cycle;Signal;HPM_P1;HPM_P2
2019/04/20 00:00:45;;;;;;;4.7;3.8;;;;;;;9.85;57.08203;969.6606;;;;
2019/04/20 00:03:02;;;;;;;6.5;4.3;;;;;;;9.84;55.95313;969.6486;;;;
2019/04/20 00:05:27;;;;;;;5.7;4;;;;;;;9.92;55.58203;969.6077;;;;
2019/04/20 00:08:14;;;;;;;5.5;4;;;;;;;9.99;52.42188;969.5377;;;;
2019/04/20 00:10:41;;;;;;;6.8;4.3;;;;;;;9.99;51.74316;969.5584;;;;
2019/04/20 00:13:09;;;;;;;6.3;4.2;;;;;;;10.08;51.17676;969.6238;;;;
2019/04/20 00:15:35;;;;;;;6.9;4.2;;;;;;;10.03;51.63086;969.5726;;;;
2019/04/20 00:18:00;;;;;;;6.1;4;;;;;;;9.93;51.72266;969.6453;;;;
2019/04/20 00:20:25;;;;;;;5.4;3.9;;;;;;;9.93;51.80469;969.5895;;;;
2019/04/20 00:28:04;;;;;;;5.3;4.3;;;;;;;9.83;52.04492;969.5813;;;;
2019/04/20 00:30:24;;;;;;;5.1;4.2;;;;;;;9.79;52.0166;969.5469;;;;
2019/04/20 00:32:49;;;;;;;6.9;4.7;;;;;;;9.67;52.36133;969.4457;;;;
2019/04/20 00:35:28;;;;;;;5.8;4.2;;;;;;;9.63;52.37891;969.4833;;;;
2019/04/20 00:37:53;;;;;;;5.3;4.4;;;;;;;9.58;52.4873;969.4752;;;;
2019/04/20 00:40:18;;;;;;;5.7;4.1;;;;;;;9.62;52.6875;969.4678;;;;
2019/04/20 00:42:46;;;;;;;6.1;4.2;;;;;;;9.53;52.68945;969.4535;;;;
2019/04/20 00:45:11;;;;;;;7.2;4.4;;;;;;;9.56;54.39648;969.4637;;;;
2019/04/20 00:47:36;;;;;;;5.3;4.1;;;;;;;9.47;57.06641;969.4249;;;;
2019/04/20 00:50:01;;;;;;;5.9;4.5;;;;;;;9.31;57.59766;969.4554;;;;
2019/04/20 00:52:43;;;;;;;5.1;4.6;;;;;;;9.32;57.74805;969.4037;;;;
2019/04/20 00:55:08;;;;;;;5.1;4.5;;;;;;;9.33;55.66797;969.4064;;;;
2019/04/20 00:57:33;;;;;;;7.2;4.4;;;;;;;9.29;56.31836;969.4183;;;;
2019/04/20 00:59:59;;;;;;;6.6;4.8;;;;;;;9.25;60.24609;969.3624;;;;
2019/04/20 01:02:24;;;;;;;5.7;5.1;;;;;;;9.13;59.87402;969.432;;;;
2019/04/20 01:04:51;;;;;;;6;4.8;;;;;;;9.11;59.60547;969.4123;;;;
2019/04/20 01:07:21;;;;;;;5.9;5;;;;;;;9.09;59.14355;969.3633;;;;
2019/04/20 01:12:06;;;;;;;6.8;5.2;;;;;;;9;61.28125;969.4093;;;;
2019/04/20 01:14:31;;;;;;;6.4;5.2;;;;;;;9;62.21289;969.3709;;;;
2019/04/20 01:16:56;;;;;;;8.4;5.5;;;;;;;8.93;62.01855;969.3678;;;;
2019/04/20 01:19:21;;;;;;;8;5.5;;;;;;;8.92;63.23535;969.3859;;;;
2019/04/20 01:21:46;;;;;;;11.1;5.9;;;;;;;8.89;63.18555;969.4092;;;;
2019/04/20 01:24:12;;;;;;;6.9;5.6;;;;;;;8.83;60.82129;969.3929;;;;
2019/04/20 01:26:37;;;;;;;6.1;5.3;;;;;;;8.84;61.48828;969.4393;;;;
2019/04/20 01:29:03;;;;;;;9.5;5.8;;;;;;;8.89;61.18555;969.4012;;;;
2019/04/20 01:31:28;;;;;;;6.9;5.4;;;;;;;8.83;58.44141;969.3976;;;;
2019/04/20 01:33:57;;;;;;;6.7;5.5;;;;;;;8.75;58.06152;969.3918;;;;
2019/04/20 01:36:22;;;;;;;7.8;4.9;;;;;;;8.76;58.00684;969.4247;;;;
2019/04/20 01:38:47;;;;;;;7.9;5.8;;;;;;;8.74;58.15332;969.4092;;;;
2019/04/20 01:41:12;;;;;;;7;5.3;;;;;;;8.68;58.87988;969.4869;;;;
2019/04/20 01:43:40;;;;;;;7.6;5.6;;;;;;;8.59;59.22559;969.3958;;;;
2019/04/20 01:46:06;;;;;;;7.1;5.7;;;;;;;8.59;58.43262;969.383;;;;
2019/04/20 01:48:32;;;;;;;8.1;5.5;;;;;;;8.64;58.3457;969.4604;;;;
2019/04/20 01:50:57;;;;;;;8.1;5.5;;;;;;;8.75;57.85547;969.4381;;;;
2019/04/20 01:53:28;;;;;;;7;5.5;;;;;;;8.73;57.54297;969.4187;;;;
2019/04/20 01:55:49;;;;;;;8.4;6;;;;;;;8.65;57.92188;969.5148;;;;
2019/04/20 01:58:18;;;;;;;7.1;5.4;;;;;;;8.66;57.5332;969.4242;;;;
2019/04/20 02:00:53;;;;;;;6.9;5.5;;;;;;;8.71;57.08105;969.407;;;;
2019/04/20 02:05:29;;;;;;;7.9;5.9;;;;;;;8.62;58.26367;969.4615;;;;
2019/04/20 02:07:54;;;;;;;6.9;5.5;;;;;;;8.58;59.73926;969.4437;;;;
2019/04/20 02:10:20;;;;;;;7;5.4;;;;;;;8.51;60.62598;969.4878;;;;
2019/04/20 02:12:45;;;;;;;8.8;6.7;;;;;;;8.44;61.90137;969.455;;;;
2019/04/20 02:15:10;;;;;;;6.9;5.6;;;;;;;8.56;60.19629;969.4794;;;;
2019/04/20 02:17:35;;;;;;;6.2;5.4;;;;;;;8.55;59.28711;969.4465;;;;
2019/04/20 02:20:03;;;;;;;9.5;5.9;;;;;;;8.38;60.1709;969.4305;;;;
2019/04/20 02:22:28;;;;;;;8.9;6;;;;;;;8.36;60.30664;969.4608;;;;
2019/04/20 02:24:55;;;;;;;7;6;;;;;;;8.28;60.54688;969.4252;;;;
2019/04/20 02:27:21;;;;;;;8.6;6.5;;;;;;;8.28;60.2832;969.5061;;;;
2019/04/20 02:29:45;;;;;;;8.5;6.3;;;;;;;8.26;60.0752;969.4561;;;;
2019/04/20 02:32:13;;;;;;;7.7;6.4;;;;;;;8.23;60.71289;969.4799;;;;
2019/04/20 02:34:43;;;;;;;6.8;6.1;;;;;;;8.21;60.99707;969.49;;;;
2019/04/20 02:37:05;;;;;;;7.9;6.1;;;;;;;8.18;60.95801;969.5225;;;;
2019/04/20 02:39:27;;;;;;;9.6;6.6;;;;;;;8.18;60.64746;969.497;;;;
2019/04/20 02:41:52;;;;;;;8.4;6.6;;;;;;;8.18;60.23438;969.5011;;;;
2019/04/20 02:44:22;;;;;;;8.3;6.2;;;;;;;8.2;60.16992;969.5504;;;;
2019/04/20 02:46:53;;;;;;;6.8;6.1;;;;;;;8.26;59.67383;969.5541;;;;
2019/04/20 02:49:37;;;;;;;8.8;6.4;;;;;;;8.29;59.52832;969.5685;;;;
2019/04/20 02:52:02;;;;;;;8.1;6.4;;;;;;;8.28;59.27441;969.5906;;;;
2019/04/20 02:54:41;;;;;;;7.1;6.4;;;;;;;8.34;59.0752;969.548;;;;
2019/04/20 02:57:09;;;;;;;8.1;6.5;;;;;;;8.38;58.78223;969.5446;;;;
2019/04/20 02:59:50;;;;;;;7.7;6.4;;;;;;;8.31;58.89746;969.4994;;;;
2019/04/20 03:02:30;;;;;;;7.2;6.3;;;;;;;8.36;58.59473;969.5547;;;;
2019/04/20 03:05:10;;;;;;;8.2;6.3;;;;;;;8.44;58.33008;969.4509;;;;
2019/04/20 03:07:37;;;;;;;7.9;6.7;;;;;;;8.3;59.15039;969.4658;;;;
2019/04/20 03:10:02;;;;;;;7.6;6.8;;;;;;;8.22;59.14941;969.4766;;;;
2019/04/20 03:12:27;;;;;;;7.1;6.4;;;;;;;8.16;59.18945;969.4897;;;;
2019/04/20 03:14:53;;;;;;;6.8;6.1;;;;;;;8.19;58.93945;969.4665;;;;
2019/04/20 03:17:18;;;;;;;8.4;6.3;;;;;;;8.18;59.44336;969.4628;;;;
2019/04/20 03:19:43;;;;;;;8.5;6.5;;;;;;;8.04;60.41113;969.4611;;;;
2019/04/20 03:22:13;;;;;;;7.7;6.9;;;;;;;7.98;60.7002;969.4955;;;;
2019/04/20 03:24:33;;;;;;;8.4;6.7;;;;;;;7.9;61.33105;969.4853;;;;
2019/04/20 03:27:02;;;;;;;7.6;6.6;;;;;;;7.79;67.3916;969.515;;;;
2019/04/20 03:31:53;;;;;;;9.4;7.4;;;;;;;7.55;70.02344;969.4659;;;;
2019/04/20 03:34:13;;;;;;;9.6;7.8;;;;;;;7.45;70.22656;969.4649;;;;
2019/04/20 03:36:39;;;;;;;8.3;7.5;;;;;;;7.43;69.16992;969.5168;;;;
2019/04/20 03:39:05;;;;;;;8.8;7.1;;;;;;;7.31;69.37793;969.5311;;;;
2019/04/20 03:41:30;;;;;;;9.2;7.4;;;;;;;7.27;69.29199;969.5253;;;;
2019/04/20 03:43:55;;;;;;;8.8;7.9;;;;;;;7.2;68.52539;969.5598;;;;
2019/04/20 03:46:22;;;;;;;9.2;7.7;;;;;;;7.15;68.30957;969.5941;;;;
2019/04/20 03:48:47;;;;;;;9.8;7.5;;;;;;;7.16;67.09863;969.5593;;;;
2019/04/20 03:51:14;;;;;;;8.8;7.1;;;;;;;7.08;67.21191;969.5609;;;;
2019/04/20 03:58:34;;;;;;;10;7.4;;;;;;;7.12;66.09668;969.5407;;;;
2019/04/20 04:02:33;;;;;;;9.6;7.5;;;;;;;7.12;65.22656;969.6085;;;;
2019/04/20 04:07:20;;;;;;;9.6;7.7;;;;;;;7.15;64.78613;969.5808;;;;
2019/04/20 04:09:46;;;;;;;10.6;7.3;;;;;;;7.18;64.46973;969.5912;;;;
2019/04/20 04:12:12;;;;;;;8.5;7.3;;;;;;;7.25;64.10059;969.5945;;;;
2019/04/20 04:14:37;;;;;;;11.1;7.1;;;;;;;7.17;64.50098;969.6347;;;;
2019/04/20 04:17:01;;;;;;;7.9;6.9;;;;;;;7.16;64.4209;969.5714;;;;
2019/04/20 04:19:27;;;;;;;7.8;7;;;;;;;7.37;63.53516;969.6027;;;;
2019/04/20 04:21:52;;;;;;;9.8;7.1;;;;;;;7.42;62.99219;969.5691;;;;
2019/04/20 04:24:17;;;;;;;8;7.1;;;;;;;7.53;62.33301;969.616;;;;
2019/04/20 04:26:42;;;;;;;9.2;7.1;;;;;;;7.39;62.46094;969.5881;;;;
2019/04/20 04:29:07;;;;;;;8.6;7.6;;;;;;;7.31;63.61816;969.6242;;;;
2019/04/20 04:31:32;;;;;;;10.9;7.8;;;;;;;7.19;65.5127;969.5953;;;;
2019/04/20 04:33:57;;;;;;;10.7;8.6;;;;;;;7.12;70.69922;969.5789;;;;
2019/04/20 04:36:26;;;;;;;10.7;8.6;;;;;;;7.14;70.38086;969.6289;;;;
2019/04/20 04:38:51;;;;;;;8.9;8;;;;;;;7.02;70.09863;969.5992;;;;
2019/04/20 04:41:16;;;;;;;8.6;7.7;;;;;;;7.04;68.68262;969.6358;;;;
2019/04/20 04:43:42;;;;;;;8.6;7.6;;;;;;;7.05;73.42383;969.6138;;;;
2019/04/20 04:46:09;;;;;;;12.9;8.2;;;;;;;7.09;70.75;969.5814;;;;
2019/04/20 04:48:34;;;;;;;9.3;8;;;;;;;7.25;66.63184;969.6119;;;;
2019/04/20 04:50:59;;;;;;;9.5;7.4;;;;;;;7.24;65.82813;969.5999;;;;
2019/04/20 04:53:24;;;;;;;8.6;7.3;;;;;;;7.36;64.15137;969.6334;;;;
2019/04/20 04:55:49;;;;;;;10.8;7.6;;;;;;;7.44;63.43164;969.6694;;;;
2019/04/20 04:58:14;;;;;;;9.7;7.3;;;;;;;7.58;62.27246;969.6627;;;;
2019/04/20 05:00:40;;;;;;;9.4;7.8;;;;;;;7.68;61.88574;969.7187;;;;
2019/04/20 05:03:09;;;;;;;8.1;7.3;;;;;;;7.64;61.93652;969.7088;;;;
2019/04/20 05:05:39;;;;;;;10;7.6;;;;;;;7.69;61.40527;969.722;;;;
2019/04/20 05:08:11;;;;;;;9;7.7;;;;;;;7.72;61.24805;969.7667;;;;
2019/04/20 05:10:36;;;;;;;9.5;7.6;;;;;;;7.8;61.19141;969.7689;;;;
2019/04/20 05:13:01;;;;;;;9.1;7.5;;;;;;;7.84;61.67773;969.8169;;;;
2019/04/20 05:15:38;;;;;;;11.2;8.4;;;;;;;8.01;61.09375;969.88;;;;
2019/04/20 05:18:03;;;;;;;11.9;7.8;;;;;;;8.06;61.125;969.868;;;;
2019/04/20 05:20:28;;;;;;;8.5;7.7;;;;;;;8.08;60.57617;969.8875;;;;
2019/04/20 05:23:05;;;;;;;9.3;7.8;;;;;;;8.09;60.44043;969.8694;;;;
2019/04/20 05:27:46;;;;;;;11.8;7.8;;;;;;;8.29;59.5625;969.9216;;;;
2019/04/20 05:30:09;;;;;;;8.9;7.7;;;;;;;8.36;59.88086;969.9119;;;;
2019/04/20 05:32:35;;;;;;;9.3;8.2;;;;;;;8.42;59.55664;969.8947;;;;
2019/04/20 05:35:00;;;;;;;9.8;8;;;;;;;8.5;59.45313;969.9052;;;;
2019/04/20 05:37:25;;;;;;;10.5;7.8;;;;;;;8.56;59.23145;969.8453;;;;
2019/04/20 05:39:52;;;;;;;9.7;7.5;;;;;;;8.59;59.3623;969.8937;;;;
2019/04/20 05:42:26;;;;;;;9.4;7.8;;;;;;;8.69;58.80176;969.9363;;;;
2019/04/20 05:44:44;;;;;;;9.2;8;;;;;;;8.76;58.44336;969.9311;;;;
2019/04/20 05:47:09;;;;;;;9.3;8;;;;;;;8.89;57.77051;969.9461;;;;
2019/04/20 05:49:34;;;;;;;9.9;8;;;;;;;8.97;58.1748;969.9472;;;;
2019/04/20 05:51:59;;;;;;;8.6;7.7;;;;;;;9.1;57.19043;969.8727;;;;
2019/04/20 05:54:24;;;;;;;10;8.2;;;;;;;9.12;56.97363;969.8887;;;;
2019/04/20 05:56:50;;;;;;;11.2;8.5;;;;;;;9.21;57.80273;969.9446;;;;
2019/04/20 05:59:16;;;;;;;11.5;8.3;;;;;;;9.26;56.95801;969.971;;;;
2019/04/20 06:01:42;;;;;;;9.2;8.2;;;;;;;9.3;56.87207;970.0566;;;;
2019/04/20 06:04:07;;;;;;;10.3;8.3;;;;;;;9.39;56.1123;970.0361;;;;
2019/04/20 06:06:32;;;;;;;11;9.1;;;;;;;9.44;55.98145;969.998;;;;
2019/04/20 06:08:58;;;;;;;9.2;8.3;;;;;;;9.56;55.66113;970.0305;;;;
2019/04/20 06:11:23;;;;;;;9.8;8.6;;;;;;;9.67;55.45898;969.9953;;;;
2019/04/20 06:18:44;;;;;;;9.8;8.8;;;;;;;9.89;54.97852;970.0625;;;;
2019/04/20 06:21:14;;;;;;;9.6;8.5;;;;;;;10.05;54.27344;970.04;;;;
2019/04/20 06:23:39;;;;;;;11.9;9.2;;;;;;;10.14;53.9375;970.0876;;;;
2019/04/20 06:26:02;;;;;;;10.4;8.4;;;;;;;10.26;53.4707;970.0686;;;;
2019/04/20 06:28:28;;;;;;;10.2;9.1;;;;;;;10.39;53.34766;970.0276;;;;
2019/04/20 06:30:53;;;;;;;11;9.4;;;;;;;10.53;52.92578;970.1434;;;;
2019/04/20 06:33:18;;;;;;;10.1;9;;;;;;;10.6;52.78418;970.0943;;;;
2019/04/20 06:35:44;;;;;;;12;9.4;;;;;;;10.65;52.91699;970.1799;;;;
2019/04/20 06:38:11;;;;;;;11.9;9.1;;;;;;;10.79;52.37988;970.1923;;;;
2019/04/20 06:40:36;;;;;;;11.3;8.7;;;;;;;10.9;52.41699;970.1614;;;;
2019/04/20 06:43:02;;;;;;;11.5;8.8;;;;;;;10.91;51.89844;970.1175;;;;
2019/04/20 06:45:37;;;;;;;10.9;9;;;;;;;10.97;51.54785;970.1847;;;;
2019/04/20 06:48:03;;;;;;;12.2;9.3;;;;;;;11.17;51.29395;970.1668;;;;
2019/04/20 06:50:29;;;;;;;12.8;9.4;;;;;;;11.28;51.27344;970.1522;;;;
2019/04/20 06:53:05;;;;;;;10.3;9.2;;;;;;;11.36;51.52441;970.171;;;;
2019/04/20 06:55:19;;;;;;;12.4;9.1;;;;;;;11.56;50.46094;970.2128;;;;
2019/04/20 06:57:44;;;;;;;11.6;9.3;;;;;;;11.63;50.2041;970.2095;;;;
2019/04/20 07:00:20;;;;;;;11;9;;;;;;;11.78;50.2207;970.1794;;;;
2019/04/20 07:02:48;;;;;;;13.3;8.9;;;;;;;11.88;50.48633;970.1447;;;;
2019/04/20 07:05:13;;;;;;;12.1;9.2;;;;;;;11.85;49.60352;970.2028;;;;
2019/04/20 07:07:38;;;;;;;10.5;9.4;;;;;;;11.84;50.29688;970.2339;;;;
2019/04/20 07:10:04;;;;;;;12.2;9.6;;;;;;;11.98;51.01855;970.2506;;;;
2019/04/20 07:12:31;;;;;;;11.6;9.2;;;;;;;12.13;50.85156;970.2492;;;;
2019/04/20 07:14:59;;;;;;;12.7;10;;;;;;;12.36;49.60449;970.2659;;;;
2019/04/20 07:17:27;;;;;;;11.6;9.5;;;;;;;12.39;49.09863;970.2885;;;;
2019/04/20 07:19:56;;;;;;;12.7;9.8;;;;;;;12.48;49.38672;970.2839;;;;
2019/04/20 07:22:20;;;;;;;13.9;9.5;;;;;;;12.52;49.64551;970.2848;;;;
2019/04/20 07:24:39;;;;;;;12.5;9.6;;;;;;;12.65;48.18848;970.3019;;;;
2019/04/20 07:27:05;;;;;;;12.1;9.4;;;;;;;12.74;48.69727;970.3058;;;;
2019/04/20 07:29:31;;;;;;;11.6;9.4;;;;;;;12.66;48.81543;970.2927;;;;
2019/04/20 07:31:54;;;;;;;12.8;9.6;;;;;;;12.91;47.96094;970.2558;;;;
2019/04/20 07:34:20;;;;;;;10.7;9.5;;;;;;;13.08;47.97949;970.2859;;;;
2019/04/20 07:36:50;;;;;;;10.7;9.1;;;;;;;13.13;48.77441;970.2855;;;;
2019/04/20 07:39:10;;;;;;;10.4;9.2;;;;;;;13.18;47.53906;970.3315;;;;
2019/04/20 07:41:35;;;;;;;10.9;9.2;;;;;;;13.32;47.92578;970.3607;;;;
2019/04/20 07:44:00;;;;;;;11.2;8.9;;;;;;;13.46;47.06934;970.2701;;;;
2019/04/20 07:46:32;;;;;;;11.8;8.9;;;;;;;13.49;48.78125;970.2491;;;;
2019/04/20 07:49:05;;;;;;;12.1;9.4;;;;;;;13.62;47.41309;970.2747;;;;
2019/04/20 07:51:38;;;;;;;12.8;9.8;;;;;;;13.51;47.71387;970.2349;;;;
2019/04/20 07:54:03;;;;;;;11.2;9.5;;;;;;;13.55;47.09082;970.2263;;;;
2019/04/20 07:56:29;;;;;;;11.9;9.6;;;;;;;13.7;47.18848;970.2333;;;;
2019/04/20 07:58:54;;;;;;;10.8;9;;;;;;;13.96;47.65918;970.1891;;;;
2019/04/20 08:01:26;;;;;;;13.2;9.9;;;;;;;13.81;47.06055;970.2134;;;;
2019/04/20 08:03:48;;;;;;;13.7;9.4;;;;;;;13.89;47.70996;970.2;;;;
2019/04/20 08:06:17;;;;;;;10.8;9.7;;;;;;;13.96;46.53125;970.1803;;;;
2019/04/20 08:08:37;;;;;;;12.4;9.6;;;;;;;14.37;46.24805;970.2583;;;;
2019/04/20 08:11:02;;;;;;;11.8;9.8;;;;;;;14.25;46.22461;970.2452;;;;
2019/04/20 08:13:27;;;;;;;13.6;10.2;;;;;;;14.56;44.12598;970.2346;;;;
2019/04/20 08:15:52;;;;;;;10.7;9.1;;;;;;;14.61;45.37598;970.2684;;;;
2019/04/20 08:18:20;;;;;;;11;9;;;;;;;14.63;45.90332;970.3049;;;;
2019/04/20 08:20:45;;;;;;;11.8;9.4;;;;;;;14.56;45.46484;970.2692;;;;
2019/04/20 08:23:15;;;;;;;12.9;9.2;;;;;;;14.59;44.81641;970.2186;;;;
2019/04/20 08:25:40;;;;;;;12.4;9.1;;;;;;;14.57;45.23242;970.2042;;;;
2019/04/20 08:28:19;;;;;;;12.1;9.1;;;;;;;14.77;44.93945;970.1566;;;;
2019/04/20 08:30:44;;;;;;;10.3;8.7;;;;;;;14.99;45.97656;970.0903;;;;
2019/04/20 08:33:02;;;;;;;10;7.8;;;;;;;15.35;45.01074;970.1807;;;;
2019/04/20 08:35:25;;;;;;;12.3;8.3;;;;;;;15.56;45.66211;970.0809;;;;
2019/04/20 08:37:51;;;;;;;9.7;8.5;;;;;;;15.74;44.45508;970.0919;;;;
2019/04/20 08:40:15;;;;;;;10;8.3;;;;;;;15.81;43.85449;970.1183;;;;
2019/04/20 08:42:43;;;;;;;10.4;7.9;;;;;;;15.76;43.62891;970.0845;;;;
2019/04/20 08:45:10;;;;;;;12.3;8.7;;;;;;;16.03;44.35547;970.0817;;;;
2019/04/20 08:47:34;;;;;;;9.9;8.2;;;;;;;16.09;42.79688;970.1086;;;;
2019/04/20 08:50:02;;;;;;;11.4;7.9;;;;;;;16.23;44.20117;970.0764;;;;
2019/04/20 08:52:27;;;;;;;10.3;8.2;;;;;;;16.24;42.46094;970.0745;;;;
2019/04/20 08:55:06;;;;;;;11.3;7.7;;;;;;;16.48;41.89941;970.0302;;;;
2019/04/20 08:57:32;;;;;;;9.8;8;;;;;;;16.52;44.1709;970.022;;;;
2019/04/20 09:00:13;;;;;;;9.7;8.1;;;;;;;16.78;41.54102;970.0614;;;;
2019/04/20 09:02:39;;;;;;;10;8.4;;;;;;;16.5;42.54395;970.0195;;;;
2019/04/20 09:05:04;;;;;;;11.6;8.4;;;;;;;16.57;41.12305;970.0377;;;;
2019/04/20 09:07:44;;;;;;;9.7;7.7;;;;;;;16.79;40.99121;969.9878;;;;
2019/04/20 09:10:24;;;;;;;10.8;8.1;;;;;;;17.23;41.47754;970.0143;;;;
2019/04/20 09:12:50;;;;;;;8.6;7.7;;;;;;;17.21;41.05469;969.9821;;;;
2019/04/20 09:15:24;;;;;;;9.1;8;;;;;;;17.23;40.89258;969.9885;;;;
2019/04/20 09:18:03;;;;;;;9.2;7.7;;;;;;;17.44;40.38379;969.99;;;;
2019/04/20 09:20:37;;;;;;;11.1;8.1;;;;;;;17.53;40.49902;969.9786;;;;
2019/04/20 09:23:04;;;;;;;10;7.6;;;;;;;17.47;39.20313;969.9299;;;;
2019/04/20 09:25:27;;;;;;;9.8;8;;;;;;;17.49;38.98145;969.9412;;;;
2019/04/20 09:30:30;;;;;;;10.3;8.1;;;;;;;18.1;39.70508;969.9594;;;;
2019/04/20 09:35:47;;;;;;;10.9;8.3;;;;;;;17.94;38.21191;969.8622;;;;
2019/04/20 09:38:16;;;;;;;13.4;8.6;;;;;;;18.31;40.04102;969.843;;;;
2019/04/20 09:40:41;;;;;;;12.7;8;;;;;;;18.6;39.11523;969.8347;;;;
2019/04/20 09:43:27;;;;;;;10.9;8.4;;;;;;;18.62;37.82422;969.8019;;;;
2019/04/20 09:47:57;;;;;;;12.1;8.5;;;;;;;18.73;38.26953;969.8959;;;;
2019/04/20 09:50:23;;;;;;;11.1;8.2;;;;;;;18.87;37.96289;969.7802;;;;
2019/04/20 09:52:48;;;;;;;9.6;8.4;;;;;;;19.06;36.40332;969.7216;;;;
2019/04/20 09:55:13;;;;;;;11.1;8.6;;;;;;;19.12;36.36133;969.7311;;;;
2019/04/20 09:57:40;;;;;;;14.5;8.9;;;;;;;19.03;36.78906;969.6953;;;;
2019/04/20 10:00:05;;;;;;;10.4;7.9;;;;;;;19.46;35.74121;969.6719;;;;
2019/04/20 10:02:38;;;;;;;12.3;8.4;;;;;;;19.36;35.01465;969.6066;;;;
2019/04/20 10:05:03;;;;;;;11.4;8.8;;;;;;;19.14;36.46875;969.6642;;;;
2019/04/20 10:07:28;;;;;;;15.5;9;;;;;;;19.29;37.01074;969.5502;;;;
2019/04/20 10:09:55;;;;;;;15.5;8.4;;;;;;;19.8;36.53516;969.6376;;;;
2019/04/20 10:12:22;;;;;;;10.7;8.3;;;;;;;20.3;35.47852;969.6257;;;;
2019/04/20 10:14:48;;;;;;;10.2;7.7;;;;;;;20.3;35.70313;969.5817;;;;
2019/04/20 10:17:15;;;;;;;8.6;7.4;;;;;;;20.42;33.94238;969.6448;;;;
2019/04/20 10:19:40;;;;;;;8.9;7;;;;;;;20.51;32.79297;969.6412;;;;
2019/04/20 10:22:05;;;;;;;9.5;7.5;;;;;;;20.38;32.9248;969.6537;;;;
2019/04/20 10:24:33;;;;;;;10.5;7.1;;;;;;;20.52;32.87695;969.6141;;;;
2019/04/20 10:26:58;;;;;;;9.7;6.8;;;;;;;20.83;32.40332;969.535;;;;
2019/04/20 10:29:23;;;;;;;10.8;7;;;;;;;20.68;31.55371;969.4942;;;;
2019/04/20 10:31:48;;;;;;;8.6;6.6;;;;;;;19.98;32.11719;969.5452;;;;
2019/04/20 10:34:13;;;;;;;7.4;6.6;;;;;;;20.51;30.71484;969.5201;;;;
2019/04/20 10:39:07;;;;;;;9.2;6.3;;;;;;;21.46;30.26074;969.5038;;;;
2019/04/20 10:41:32;;;;;;;10.5;5.7;;;;;;;21.15;31.31543;969.4103;;;;
2019/04/20 10:43:59;;;;;;;8.1;6.3;;;;;;;21.32;28.46582;969.4442;;;;
2019/04/20 10:46:24;;;;;;;8.6;6;;;;;;;21.71;31.76953;969.5038;;;;
2019/04/20 10:48:49;;;;;;;8.4;6.4;;;;;;;21.65;29.6582;969.4779;;;;
2019/04/20 10:51:33;;;;;;;8.5;6.7;;;;;;;21.49;29.64648;969.3825;;;;
2019/04/20 10:53:58;;;;;;;7.5;5.9;;;;;;;21.98;28.59082;969.4453;;;;
2019/04/20 10:56:26;;;;;;;8.5;5.7;;;;;;;22.1;30.29199;969.5168;;;;
2019/04/20 10:58:51;;;;;;;8.1;6.1;;;;;;;22.32;31.06543;969.3563;;;;
2019/04/20 11:01:27;;;;;;;10;6.2;;;;;;;22.36;28.47266;969.4423;;;;
2019/04/20 11:03:52;;;;;;;6.5;5.6;;;;;;;22.06;26.41602;969.4529;;;;
2019/04/20 11:06:20;;;;;;;7.3;5.5;;;;;;;21.85;28.58203;969.3769;;;;
2019/04/20 11:08:45;;;;;;;9.2;6.1;;;;;;;22.03;27.81152;969.3828;;;;
2019/04/20 11:11:10;;;;;;;8.7;6.1;;;;;;;21.88;27.79102;969.4199;;;;
2019/04/20 11:13:35;;;;;;;8.2;6;;;;;;;22.19;27.12305;969.3873;;;;
2019/04/20 11:16:03;;;;;;;8.5;5.7;;;;;;;22.51;30.75879;969.3649;;;;
2019/04/20 11:18:34;;;;;;;8.2;6.1;;;;;;;22.59;28.39258;969.3752;;;;
2019/04/20 11:21:00;;;;;;;9.8;6.1;;;;;;;22.64;27.69629;969.2111;;;;
2019/04/20 11:23:45;;;;;;;7.7;6;;;;;;;22.48;26.37012;969.2505;;;;
2019/04/20 11:26:11;;;;;;;7.6;5.3;;;;;;;22.61;25.1084;969.12;;;;
2019/04/20 11:28:37;;;;;;;8.4;5.6;;;;;;;22.92;25.7666;969.1545;;;;
2019/04/20 11:31:07;;;;;;;8.3;5.6;;;;;;;23.5;27.59473;969.2164;;;;
2019/04/20 11:33:42;;;;;;;7.3;6;;;;;;;23.39;26.7334;969.1876;;;;
2019/04/20 11:36:07;;;;;;;7.2;5.8;;;;;;;24.18;25.49512;969.1221;;;;
2019/04/20 11:38:32;;;;;;;7.7;5.6;;;;;;;24.41;24.51953;969.175;;;;
2019/04/20 11:40:58;;;;;;;6.7;6;;;;;;;23.91;25.3252;969.0958;;;;
2019/04/20 11:43:23;;;;;;;8.5;5.4;;;;;;;24.18;25.31641;969.0356;;;;
2019/04/20 11:46:00;;;;;;;6.6;4.8;;;;;;;23.91;23.62402;969.0173;;;;
2019/04/20 11:48:45;;;;;;;5.7;5;;;;;;;24.32;24.25293;969.1581;;;;
2019/04/20 11:51:10;;;;;;;6.8;5.3;;;;;;;25.49;22.51367;969.1144;;;;
2019/04/20 11:53:46;;;;;;;8.2;6;;;;;;;24.2;22.91309;969.0714;;;;
2019/04/20 11:56:18;;;;;;;7.6;5.2;;;;;;;24.35;22.08789;969.1184;;;;
2019/04/20 11:58:44;;;;;;;6.2;5;;;;;;;24.62;22.98242;969.1275;;;;
2019/04/20 12:01:28;;;;;;;7.1;5.4;;;;;;;24.83;23.81543;969.1097;;;;
2019/04/20 12:03:50;;;;;;;6.7;5.2;;;;;;;24.71;22.40234;969.0745;;;;
2019/04/20 12:06:16;;;;;;;7.7;5.1;;;;;;;24.42;23.06641;969.0128;;;;
2019/04/20 12:09:05;;;;;;;5.5;5;;;;;;;24.6;21.73047;969.0511;;;;
2019/04/20 12:11:40;;;;;;;6.3;5;;;;;;;24.87;22.01758;969.0072;;;;
2019/04/20 12:14:05;;;;;;;6.8;5.5;;;;;;;24.98;22.25;969.0425;;;;
2019/04/20 12:16:30;;;;;;;6.2;5.3;;;;;;;24.71;22.02148;968.9829;;;;
2019/04/20 12:18:56;;;;;;;5.7;5.1;;;;;;;24.34;21.62207;968.8287;;;;
2019/04/20 12:21:20;;;;;;;6.2;5.3;;;;;;;25.17;23.42773;968.9103;;;;
2019/04/20 12:23:45;;;;;;;5.8;4.8;;;;;;;25.67;20.03906;968.8423;;;;
2019/04/20 12:26:11;;;;;;;5.9;4.8;;;;;;;25.29;20.78516;968.8564;;;;
2019/04/20 12:28:36;;;;;;;5.7;4.6;;;;;;;26.09;20.36816;968.8658;;;;
2019/04/20 12:31:01;;;;;;;5.6;4.7;;;;;;;26.2;20.63672;969.0052;;;;
2019/04/20 12:33:26;;;;;;;6.5;5.5;;;;;;;25.77;17.85742;968.8237;;;;
2019/04/20 12:35:51;;;;;;;7.2;4.5;;;;;;;26.46;20.13379;968.8035;;;;
2019/04/20 12:38:17;;;;;;;6;5.4;;;;;;;26.37;19.71094;968.7914;;;;
2019/04/20 12:40:42;;;;;;;6.9;5.5;;;;;;;25.76;20.90234;968.8505;;;;
2019/04/20 12:43:09;;;;;;;5.9;5.3;;;;;;;26.82;18.91699;968.7389;;;;
2019/04/20 12:45:34;;;;;;;5.7;5;;;;;;;25.39;19.77539;968.7757;;;;
2019/04/20 12:48:01;;;;;;;6.5;5.2;;;;;;;26.55;19.83887;968.7679;;;;
2019/04/20 12:50:27;;;;;;;7.7;5.2;;;;;;;26.02;20.29395;968.7018;;;;
2019/04/20 12:52:52;;;;;;;6.6;5.4;;;;;;;26.16;18.90039;968.6844;;;;
2019/04/20 12:55:22;;;;;;;5.8;5.3;;;;;;;26.72;19.30762;968.6496;;;;
2019/04/20 12:57:58;;;;;;;6.2;5.5;;;;;;;26.37;20.33301;968.6772;;;;
2019/04/20 13:00:24;;;;;;;10.5;5.5;;;;;;;25.53;18.08691;968.7375;;;;
2019/04/20 13:02:49;;;;;;;10.4;5.2;;;;;;;26.72;19.10449;968.5748;;;;
2019/04/20 13:05:22;;;;;;;6.5;5.3;;;;;;;26.85;18.4873;968.5936;;;;
2019/04/20 13:07:49;;;;;;;7.4;5.8;;;;;;;27.09;18.67676;968.5639;;;;
2019/04/20 13:10:14;;;;;;;6.7;6;;;;;;;26.19;18.00488;968.6495;;;;
2019/04/20 13:16:17;;;;;;;8.6;5.8;;;;;;;26.45;17.21484;968.512;;;;
2019/04/20 13:21:02;;;;;;;8.8;5.7;;;;;;;26.78;15.49121;968.5388;;;;
2019/04/20 13:23:27;;;;;;;7.2;5.5;;;;;;;26.24;17.08691;968.4271;;;;
2019/04/20 13:25:56;;;;;;;7.7;5.9;;;;;;;26.97;16.99512;968.452;;;;
2019/04/20 13:28:23;;;;;;;7.1;5.6;;;;;;;27.1;16.64063;968.396;;;;
2019/04/20 13:30:48;;;;;;;7.6;5.9;;;;;;;27.65;17.16406;968.4345;;;;
2019/04/20 13:33:13;;;;;;;7.7;6;;;;;;;28.26;14.95313;968.4584;;;;
2019/04/20 13:35:38;;;;;;;6.6;6;;;;;;;27.67;16.99707;968.4228;;;;
2019/04/20 13:38:05;;;;;;;8.6;6.1;;;;;;;28.21;15.57617;968.4356;;;;
2019/04/20 13:40:30;;;;;;;8.6;6.6;;;;;;;27.08;15.65723;968.2639;;;;
2019/04/20 13:42:57;;;;;;;7.9;6.1;;;;;;;27.55;16.17773;968.289;;;;
2019/04/20 13:45:22;;;;;;;9.4;5.8;;;;;;;27.64;15.83301;968.2952;;;;
2019/04/20 13:47:47;;;;;;;6.9;6.2;;;;;;;28.26;14.76172;968.3386;;;;
2019/04/20 13:50:14;;;;;;;8.8;6.3;;;;;;;27.93;14.83496;968.3279;;;;
2019/04/20 13:52:39;;;;;;;6.9;6.2;;;;;;;28.07;16.18359;968.3097;;;;
2019/04/20 13:55:14;;;;;;;8.5;7.4;;;;;;;27.07;16.12402;968.2126;;;;
2019/04/20 13:57:45;;;;;;;7.5;6.7;;;;;;;27.12;16.10156;968.1819;;;;
2019/04/20 14:02:52;;;;;;;7.6;6.4;;;;;;;26.27;16.25098;968.0943;;;;
2019/04/20 14:05:11;;;;;;;7.8;6.3;;;;;;;27.73;15.75195;968.1016;;;;
2019/04/20 14:07:41;;;;;;;8.4;6.7;;;;;;;27.01;16.20605;968.1042;;;;
2019/04/20 14:10:10;;;;;;;9;6.1;;;;;;;26.71;15.32129;968.0507;;;;
2019/04/20 14:12:35;;;;;;;10.2;6.3;;;;;;;27.41;15.7168;968.0616;;;;
2019/04/20 14:15:00;;;;;;;8.3;6;;;;;;;26.32;15.87012;967.9979;;;;
2019/04/20 14:17:25;;;;;;;7.7;6.6;;;;;;;26.64;15.04395;967.9394;;;;
2019/04/20 14:19:50;;;;;;;7;5.9;;;;;;;26.13;17.66797;967.9152;;;;
2019/04/20 14:22:17;;;;;;;7.7;6.1;;;;;;;26.88;16.41699;967.9097;;;;
2019/04/20 14:24:42;;;;;;;8.4;6.2;;;;;;;27.04;16.05078;967.8311;;;;
2019/04/20 14:27:09;;;;;;;8.6;5.9;;;;;;;26.64;16.10938;967.7989;;;;
2019/04/20 14:29:34;;;;;;;7.1;6;;;;;;;27.28;15.38867;967.7881;;;;
2019/04/20 14:31:59;;;;;;;10.4;5.9;;;;;;;28;16.53027;967.7891;;;;
2019/04/20 14:34:25;;;;;;;10.3;6.2;;;;;;;26.25;15.91504;967.7858;;;;
2019/04/20 14:36:50;;;;;;;7.1;6.4;;;;;;;26.38;15.94336;967.8187;;;;
2019/04/20 14:39:16;;;;;;;10.1;6.2;;;;;;;26.78;15.75488;967.7244;;;;
2019/04/20 14:41:53;;;;;;;7.4;6.6;;;;;;;26.93;16.51465;967.7486;;;;
2019/04/20 14:44:20;;;;;;;9.1;5.8;;;;;;;26.77;15.68262;967.677;;;;
2019/04/20 14:46:46;;;;;;;8.2;5.9;;;;;;;27.77;16.71289;967.7178;;;;
2019/04/20 14:49:11;;;;;;;9.3;6.8;;;;;;;27.28;15.97559;967.6002;;;;
2019/04/20 14:51:41;;;;;;;7.7;5.9;;;;;;;27.53;15.64941;967.6245;;;;
2019/04/20 14:54:09;;;;;;;7.9;6.2;;;;;;;27.39;16.75879;967.5655;;;;
2019/04/20 14:56:34;;;;;;;10.1;6.2;;;;;;;26.67;15.60742;967.6024;;;;
2019/04/20 14:59:04;;;;;;;7.9;6.1;;;;;;;26.76;16.08887;967.6139;;;;
2019/04/20 15:01:33;;;;;;;9.9;6.9;;;;;;;26.22;15.89063;967.5818;;;;
2019/04/20 15:03:56;;;;;;;7.7;6.1;;;;;;;27.31;15.58105;967.6213;;;;
2019/04/20 15:06:20;;;;;;;8.6;6.3;;;;;;;25.93;16.22656;967.5486;;;;
2019/04/20 15:08:47;;;;;;;7.1;6.4;;;;;;;27.13;15.0957;967.4973;;;;
2019/04/20 15:11:12;;;;;;;7.9;6.2;;;;;;;26.53;16.24805;967.4142;;;;